Time;durP1;ratioP1;P1;durP2;ratioP2;P2;SDS_P1;SDS_P2;PMS_P1;PMS_P2;Temp;Humidity;BMP_temperature;BMP_pressure;BME280_temperature;BME280_humidity;BME280_pressure;Samples;Min_cycle;Max_cycle;Signal;HPM_P1;HPM_P2
2022/07/18 00:00:02;;;;;;;6.45;4.38;;;;;;;21.12;49.83;93571.84;2071853;69;20608;-67
2022/07/18 00:02:30;;;;;;;9.40;4.88;;;;;;;20.86;50.71;93565.91;2071490;69;20653;-67
2022/07/18 00:04:57;;;;;;;7.30;4.22;;;;;;;20.87;50.53;93567.38;2071424;69;20160;-67
2022/07/18 00:07:22;;;;;;;8.20;4.97;;;;;;;20.80;50.67;93572.13;2071042;69;20148;-67
2022/07/18 00:09:48;;;;;;;4.85;4.07;;;;;;;20.85;50.37;93564.44;2071482;69;20148;-68
2022/07/18 00:12:14;;;;;;;8.90;4.82;;;;;;;20.72;50.83;93572.59;2071625;69;20754;-66
2022/07/18 00:14:40;;;;;;;9.77;5.40;;;;;;;20.63;51.56;93576.53;2071517;69;20167;-72
2022/07/18 00:17:07;;;;;;;9.00;5.03;;;;;;;20.60;51.31;93569.25;2071488;69;20148;-74
2022/07/18 00:19:33;;;;;;;8.15;4.82;;;;;;;20.56;51.54;93569.84;2071220;69;20205;-68
2022/07/18 00:22:00;;;;;;;8.80;4.80;;;;;;;20.67;51.21;93573.09;2070586;69;20147;-73
2022/07/18 00:24:26;;;;;;;8.23;4.80;;;;;;;20.55;51.21;93562.66;2071496;69;20247;-73
2022/07/18 00:26:52;;;;;;;8.07;4.78;;;;;;;20.51;51.30;93564.63;2071663;69;20223;-67
2022/07/18 00:29:18;;;;;;;7.22;4.38;;;;;;;20.61;50.70;93570.00;2068419;69;20523;-71
2022/07/18 00:31:43;;;;;;;7.65;4.75;;;;;;;20.39;51.91;93576.34;2065346;69;20179;-70
2022/07/18 00:34:09;;;;;;;7.55;4.70;;;;;;;20.37;51.95;93575.50;2071633;69;20607;-69
2022/07/18 00:36:35;;;;;;;8.27;4.65;;;;;;;20.46;51.44;93574.44;2071410;69;20356;-72
2022/07/18 00:39:01;;;;;;;8.75;4.63;;;;;;;20.24;52.78;93569.31;2071718;69;20164;-67
2022/07/18 00:41:27;;;;;;;7.85;4.93;;;;;;;20.29;51.90;93570.94;2071470;69;20145;-67
2022/07/18 00:43:53;;;;;;;8.25;4.68;;;;;;;20.36;51.83;93579.78;2071525;69;20511;-67
2022/07/18 00:46:26;;;;;;;6.72;4.32;;;;;;;20.27;51.21;93573.72;2071601;69;20156;-68
2022/07/18 00:48:52;;;;;;;14.23;5.30;;;;;;;20.31;51.50;93576.75;2071559;69;20155;-68
2022/07/18 00:51:19;;;;;;;11.73;5.18;;;;;;;20.21;52.42;93578.50;2071590;69;20132;-72
2022/07/18 00:53:49;;;;;;;7.03;4.60;;;;;;;20.15;52.81;93584.69;2071367;69;20151;-72
2022/07/18 00:56:19;;;;;;;8.48;5.05;;;;;;;20.04;52.97;93582.81;2071866;69;20600;-72
2022/07/18 00:58:45;;;;;;;7.82;4.90;;;;;;;20.02;52.46;93582.72;2071483;69;20209;-72
2022/07/18 01:03:55;;;;;;;10.05;4.72;;;;;;;19.98;53.19;93582.59;2068366;69;20136;-66
2022/07/18 01:06:21;;;;;;;8.50;4.93;;;;;;;20.25;51.09;93587.97;2070581;69;20144;-68
2022/07/18 01:08:47;;;;;;;8.07;4.90;;;;;;;19.89;53.10;93581.53;2071386;69;20221;-67
2022/07/18 01:11:13;;;;;;;7.90;4.93;;;;;;;20.02;52.31;93589.22;2071667;69;20136;-67
2022/07/18 01:13:40;;;;;;;10.80;6.05;;;;;;;19.97;52.53;93586.81;2068357;69;20136;-68
2022/07/18 01:16:05;;;;;;;7.63;5.45;;;;;;;19.93;52.73;93593.13;2071474;69;20147;-68
2022/07/18 01:18:31;;;;;;;7.22;4.60;;;;;;;19.90;52.68;93591.56;2071607;69;20140;-67
2022/07/18 01:20:57;;;;;;;7.68;4.65;;;;;;;19.94;52.72;93582.44;2071605;69;20289;-67
2022/07/18 01:23:22;;;;;;;7.63;4.70;;;;;;;19.80;53.52;93582.59;2071600;69;20144;-67
2022/07/18 01:25:48;;;;;;;5.72;4.97;;;;;;;19.75;53.72;93590.25;2071545;69;20627;-67
2022/07/18 01:28:14;;;;;;;7.53;4.93;;;;;;;19.83;52.81;93586.25;2071625;69;20160;-67
2022/07/18 01:30:40;;;;;;;7.18;5.07;;;;;;;19.59;54.10;93583.09;2068302;69;20172;-68
2022/07/18 01:33:06;;;;;;;6.88;5.80;;;;;;;19.71;53.77;93575.06;2071668;69;20168;-69
2022/07/18 01:35:35;;;;;;;13.77;8.18;;;;;;;19.53;52.60;93575.03;2071553;69;20648;-68
2022/07/18 01:38:02;;;;;;;12.80;6.65;;;;;;;19.76;52.46;93580.31;2071552;69;20201;-67
2022/07/18 01:40:28;;;;;;;9.00;5.13;;;;;;;19.54;54.48;93582.94;2071525;69;20235;-68
2022/07/18 01:42:54;;;;;;;11.63;6.00;;;;;;;19.52;53.31;93588.59;2071440;69;20290;-72
2022/07/18 01:45:21;;;;;;;16.20;7.38;;;;;;;19.36;54.42;93587.88;2071446;69;20174;-71
2022/07/18 01:47:46;;;;;;;14.00;7.13;;;;;;;19.55;53.82;93597.94;2071582;69;20154;-71
2022/07/18 01:50:13;;;;;;;10.90;7.07;;;;;;;19.52;53.32;93596.41;2071522;69;20148;-71
2022/07/18 01:52:39;;;;;;;10.02;6.70;;;;;;;19.27;54.47;93598.22;2071797;69;20168;-67
2022/07/18 01:55:07;;;;;;;10.50;6.13;;;;;;;19.44;54.00;93596.06;2072040;69;20193;-67
2022/07/18 01:57:33;;;;;;;11.63;7.32;;;;;;;19.41;54.31;93597.34;2072050;69;20222;-68
2022/07/18 01:59:59;;;;;;;10.23;7.28;;;;;;;19.43;54.23;93588.91;2071999;69;20178;-67
2022/07/18 02:02:24;;;;;;;13.68;7.80;;;;;;;19.27;55.28;93597.50;2071531;69;20136;-67
2022/07/18 02:04:59;;;;;;;12.02;7.53;;;;;;;19.26;55.13;93591.06;2071625;69;20203;-69
2022/07/18 02:07:32;;;;;;;12.00;6.95;;;;;;;19.28;54.56;93599.69;2071471;69;20237;-68
2022/07/18 02:09:59;;;;;;;10.55;6.53;;;;;;;19.10;55.02;93592.47;2068606;69;20152;-68
2022/07/18 02:12:25;;;;;;;8.43;6.40;;;;;;;19.26;54.58;93596.03;2072067;69;20133;-71
2022/07/18 02:14:51;;;;;;;11.23;6.40;;;;;;;19.22;54.72;93596.59;2071576;69;20155;-69
2022/07/18 02:17:17;;;;;;;8.02;5.60;;;;;;;18.94;55.55;93587.53;2072021;69;20199;-69
2022/07/18 02:19:43;;;;;;;11.35;5.57;;;;;;;19.26;53.85;93578.91;2071912;69;20148;-68
2022/07/18 02:22:08;;;;;;;8.15;5.78;;;;;;;19.21;54.39;93582.97;2071621;69;20166;-70
2022/07/18 02:24:34;;;;;;;8.80;5.70;;;;;;;19.12;54.53;93578.28;2072006;69;20148;-69
2022/07/18 02:27:00;;;;;;;6.95;5.20;;;;;;;19.11;54.09;93576.84;2071679;69;20196;-68
2022/07/18 02:29:26;;;;;;;7.35;5.38;;;;;;;19.05;54.93;93583.00;2071820;69;20188;-68
2022/07/18 02:31:51;;;;;;;7.65;5.28;;;;;;;18.98;55.26;93578.41;2071853;69;20147;-67
2022/07/18 02:34:18;;;;;;;11.18;6.03;;;;;;;19.02;55.03;93582.19;2071864;69;20148;-68
2022/07/18 02:36:43;;;;;;;9.75;6.25;;;;;;;18.81;55.89;93588.38;2071736;69;20156;-69
2022/07/18 02:39:09;;;;;;;9.77;5.90;;;;;;;18.76;56.08;93584.59;2065753;69;20141;-67
2022/07/18 02:41:36;;;;;;;10.43;5.72;;;;;;;18.86;55.80;93587.16;2072092;69;20153;-67
2022/07/18 02:44:02;;;;;;;7.97;5.80;;;;;;;18.78;55.75;93598.22;2072195;69;20702;-68
2022/07/18 02:46:27;;;;;;;8.25;5.40;;;;;;;18.88;55.28;93589.38;2071678;69;20136;-68
2022/07/18 02:48:53;;;;;;;10.75;6.50;;;;;;;18.77;55.47;93586.06;2071568;69;20183;-71
2022/07/18 02:51:19;;;;;;;9.63;6.22;;;;;;;18.72;55.58;93595.09;2068272;69;20238;-72
2022/07/18 02:53:45;;;;;;;10.05;5.85;;;;;;;18.75;55.45;93590.97;2068348;69;20535;-71
2022/07/18 02:56:11;;;;;;;10.48;6.28;;;;;;;18.75;56.01;93597.41;2071978;69;20205;-71
2022/07/18 02:58:36;;;;;;;8.05;5.65;;;;;;;18.66;56.17;93597.66;2072094;69;20156;-69
2022/07/18 03:01:02;;;;;;;8.90;5.47;;;;;;;18.50;56.08;93592.66;2071689;69;20337;-70
2022/07/18 03:03:28;;;;;;;8.32;6.20;;;;;;;18.61;55.26;93596.75;2071895;69;20156;-68
2022/07/18 03:05:54;;;;;;;9.48;5.63;;;;;;;18.63;55.80;93599.66;2065819;69;20609;-73
2022/07/18 03:08:19;;;;;;;8.07;5.38;;;;;;;18.48;56.52;93600.41;2071877;69;20626;-72
2022/07/18 03:10:45;;;;;;;7.78;5.50;;;;;;;18.44;56.23;93600.94;2071801;69;20503;-67
2022/07/18 03:13:12;;;;;;;6.85;5.57;;;;;;;18.55;55.68;93596.44;2071959;69;20172;-69
2022/07/18 03:15:39;;;;;;;8.07;5.55;;;;;;;18.51;56.18;93605.56;2071825;69;20143;-70
2022/07/18 03:18:04;;;;;;;9.50;5.63;;;;;;;18.52;55.77;93601.34;2071943;69;20210;-72
2022/07/18 03:20:30;;;;;;;8.90;5.55;;;;;;;18.38;57.17;93599.94;2071987;69;20526;-73
2022/07/18 03:22:56;;;;;;;6.70;5.18;;;;;;;18.37;56.26;93607.00;2071868;69;20233;-73
2022/07/18 03:25:22;;;;;;;11.05;5.55;;;;;;;18.44;55.61;93612.34;2071939;69;20500;-73
2022/07/18 03:27:51;;;;;;;8.52;5.80;;;;;;;18.29;56.16;93607.38;2071954;69;20156;-71
2022/07/18 03:30:17;;;;;;;11.25;5.78;;;;;;;18.21;57.03;93607.72;2071848;69;20484;-73
2022/07/18 03:32:42;;;;;;;7.13;5.85;;;;;;;18.20;57.09;93608.38;2072041;69;20186;-73
2022/07/18 03:35:09;;;;;;;6.20;5.43;;;;;;;18.19;57.34;93604.81;2071845;69;20239;-71
2022/07/18 03:37:34;;;;;;;6.47;5.57;;;;;;;18.22;57.13;93608.47;2071873;69;20136;-68
2022/07/18 03:40:00;;;;;;;11.07;6.05;;;;;;;18.21;57.39;93607.00;2071897;69;20198;-68
2022/07/18 03:42:26;;;;;;;9.00;5.53;;;;;;;18.23;56.11;93619.22;2072024;69;20164;-68
2022/07/18 03:44:51;;;;;;;9.73;6.72;;;;;;;18.29;56.21;93624.50;2071900;69;20148;-67
2022/07/18 03:47:17;;;;;;;8.48;6.10;;;;;;;18.16;57.45;93628.88;2071866;69;20156;-68
2022/07/18 03:49:42;;;;;;;9.40;5.68;;;;;;;18.01;57.91;93632.44;2071776;69;20519;-69
2022/07/18 03:52:08;;;;;;;9.25;5.97;;;;;;;18.07;57.68;93634.81;2071758;69;20180;-70
2022/07/18 03:54:34;;;;;;;9.35;5.75;;;;;;;18.02;57.86;93631.78;2071792;69;20145;-73
2022/07/18 03:56:59;;;;;;;8.25;5.68;;;;;;;18.15;57.27;93632.38;2072046;69;20173;-74
2022/07/18 03:59:25;;;;;;;7.53;5.80;;;;;;;18.03;58.12;93636.09;2072001;69;20151;-71
2022/07/18 04:01:51;;;;;;;8.35;6.18;;;;;;;17.95;58.22;93649.22;2071846;69;20144;-75
2022/07/18 04:04:16;;;;;;;8.98;6.05;;;;;;;17.77;58.67;93640.50;2071789;69;20155;-71
2022/07/18 04:06:42;;;;;;;8.60;6.00;;;;;;;17.85;58.21;93645.88;2071572;69;20653;-70
2022/07/18 04:09:08;;;;;;;9.93;5.90;;;;;;;17.87;57.95;93645.97;2071707;69;20156;-68
2022/07/18 04:11:33;;;;;;;8.23;6.10;;;;;;;17.98;56.84;93640.13;2071852;69;20152;-68
2022/07/18 04:13:59;;;;;;;11.70;6.43;;;;;;;17.83;58.31;93640.09;2071742;69;20237;-70
2022/07/18 04:16:24;;;;;;;11.90;6.40;;;;;;;17.89;57.83;93643.97;2071936;69;20231;-69
2022/07/18 04:18:50;;;;;;;10.80;6.03;;;;;;;17.87;57.00;93638.19;2071713;69;20164;-68
2022/07/18 04:21:16;;;;;;;9.18;6.47;;;;;;;17.93;57.54;93634.88;2068342;69;20542;-68
2022/07/18 04:23:42;;;;;;;7.90;6.00;;;;;;;17.94;57.56;93636.34;2071762;69;20152;-71
2022/07/18 04:26:08;;;;;;;8.35;5.90;;;;;;;17.92;57.77;93636.25;2071791;69;20151;-71
2022/07/18 04:28:34;;;;;;;10.52;6.43;;;;;;;17.88;58.15;93638.91;2071645;69;20246;-69
2022/07/18 04:31:00;;;;;;;10.20;5.97;;;;;;;17.81;58.39;93642.81;2071649;69;20160;-74
2022/07/18 04:33:26;;;;;;;10.32;6.38;;;;;;;17.82;58.40;93650.00;2071751;69;20143;-72
2022/07/18 04:35:52;;;;;;;10.50;5.90;;;;;;;17.85;58.34;93658.00;2071721;69;20195;-72
2022/07/18 04:38:17;;;;;;;12.30;7.10;;;;;;;17.73;59.30;93655.31;2071548;69;20243;-73
2022/07/18 04:40:43;;;;;;;14.32;7.25;;;;;;;17.83;58.44;93652.22;2071759;69;20168;-68
2022/07/18 04:43:09;;;;;;;9.98;6.35;;;;;;;17.67;59.01;93654.97;2071697;69;20566;-68
2022/07/18 04:45:35;;;;;;;10.82;7.00;;;;;;;17.60;59.75;93646.78;2071836;69;20140;-67
2022/07/18 04:48:04;;;;;;;14.88;6.78;;;;;;;17.76;58.64;93644.75;2071604;69;20156;-67
2022/07/18 04:50:29;;;;;;;11.13;6.47;;;;;;;17.80;58.98;93642.09;2071681;69;20231;-68
2022/07/18 04:52:55;;;;;;;11.43;6.20;;;;;;;17.77;59.90;93643.34;2071533;69;20235;-68
2022/07/18 04:55:22;;;;;;;12.05;6.53;;;;;;;17.78;59.37;93639.16;2071683;69;20198;-73
2022/07/18 04:57:48;;;;;;;11.30;5.85;;;;;;;17.73;59.58;93641.06;2071841;69;20144;-73
2022/07/18 05:00:17;;;;;;;11.30;6.53;;;;;;;17.68;60.16;93647.16;2071704;69;20596;-73
2022/07/18 05:02:44;;;;;;;9.68;6.90;;;;;;;17.81;58.12;93642.81;2071630;69;20140;-74
2022/07/18 05:05:12;;;;;;;11.63;6.70;;;;;;;17.75;58.82;93646.84;2071704;69;20309;-72
2022/07/18 05:07:42;;;;;;;11.20;6.40;;;;;;;17.74;59.34;93641.81;2071474;69;20677;-75
2022/07/18 05:10:09;;;;;;;11.23;6.30;;;;;;;17.85;58.35;93643.75;2071584;69;20150;-74
2022/07/18 05:12:37;;;;;;;10.82;6.57;;;;;;;17.83;59.42;93645.78;2071576;69;20205;-74
2022/07/18 05:15:11;;;;;;;9.75;6.18;;;;;;;17.87;59.47;93643.13;2071329;69;20178;-73
2022/07/18 05:17:38;;;;;;;8.65;6.30;;;;;;;17.94;59.13;93644.91;2071561;69;20164;-69
2022/07/18 05:20:05;;;;;;;9.35;6.50;;;;;;;17.84;58.14;93645.13;2071762;69;20298;-69
2022/07/18 05:22:33;;;;;;;11.40;6.40;;;;;;;17.98;59.02;93634.44;2071394;69;20605;-69
2022/07/18 05:24:58;;;;;;;8.20;6.22;;;;;;;17.89;59.48;93638.25;2071539;69;20630;-69
2022/07/18 05:27:24;;;;;;;11.38;7.10;;;;;;;17.67;59.34;93631.44;2071768;69;20137;-67
2022/07/18 05:29:49;;;;;;;12.07;7.13;;;;;;;17.72;59.63;93636.69;2071615;69;20535;-68
2022/07/18 05:32:15;;;;;;;11.20;6.70;;;;;;;17.74;60.50;93630.41;2071510;69;20195;-69
2022/07/18 05:34:41;;;;;;;8.90;6.70;;;;;;;17.76;60.23;93639.03;2071604;69;20499;-75
2022/07/18 05:37:07;;;;;;;10.43;6.90;;;;;;;17.94;58.08;93630.66;2071621;69;20510;-77
2022/07/18 05:39:32;;;;;;;7.32;6.32;;;;;;;17.95;59.52;93646.38;2068551;69;20132;-75
2022/07/18 05:41:58;;;;;;;9.45;6.90;;;;;;;17.57;60.25;93640.22;2071522;69;20605;-72
2022/07/18 05:44:23;;;;;;;10.65;7.40;;;;;;;17.76;60.01;93633.34;2071755;69;20141;-71
2022/07/18 05:46:49;;;;;;;10.65;7.45;;;;;;;17.73;60.44;93634.59;2071730;69;20152;-72
2022/07/18 05:49:15;;;;;;;10.27;7.25;;;;;;;17.67;61.30;93635.03;2071574;69;20137;-70
2022/07/18 05:51:41;;;;;;;10.00;6.95;;;;;;;17.80;60.14;93638.50;2071418;69;20144;-67
2022/07/18 05:54:08;;;;;;;12.35;7.28;;;;;;;17.87;59.75;93628.88;2071590;69;20539;-68
2022/07/18 05:56:33;;;;;;;13.18;6.85;;;;;;;17.90;60.21;93628.34;2071587;69;20223;-68
2022/07/18 05:58:59;;;;;;;9.43;7.40;;;;;;;17.82;60.68;93627.19;2071691;69;20243;-70
2022/07/18 06:01:25;;;;;;;12.23;6.95;;;;;;;17.97;59.09;93624.41;2071276;69;20143;-73
2022/07/18 06:03:50;;;;;;;11.18;6.90;;;;;;;18.18;59.06;93613.97;2071360;69;20636;-71
2022/07/18 06:06:18;;;;;;;10.85;7.07;;;;;;;18.02;61.16;93628.19;2071362;69;20143;-69
2022/07/18 06:08:44;;;;;;;9.30;6.75;;;;;;;18.01;60.94;93618.19;2071422;69;20171;-77
2022/07/18 06:11:10;;;;;;;11.38;6.82;;;;;;;18.10;60.16;93620.03;2071494;69;20140;-78
2022/07/18 06:13:38;;;;;;;12.75;6.65;;;;;;;18.07;59.91;93615.63;2071735;69;20168;-74
2022/07/18 06:16:05;;;;;;;14.23;6.93;;;;;;;18.14;60.58;93616.63;2071506;69;20160;-72
2022/07/18 06:18:31;;;;;;;14.40;8.00;;;;;;;18.04;60.88;93611.94;2071527;69;20602;-76
2022/07/18 06:20:56;;;;;;;10.80;6.95;;;;;;;18.19;60.16;93606.91;2071492;69;20151;-72
2022/07/18 06:23:22;;;;;;;12.90;7.18;;;;;;;18.21;60.87;93604.16;2071237;69;20217;-69
2022/07/18 06:25:48;;;;;;;9.85;6.38;;;;;;;18.37;59.61;93607.78;2071511;69;20140;-68
2022/07/18 06:28:13;;;;;;;7.72;6.90;;;;;;;18.42;60.12;93609.44;2071471;69;20139;-70
2022/07/18 06:30:39;;;;;;;7.32;6.38;;;;;;;18.50;59.65;93609.78;2071443;69;20151;-69
2022/07/18 06:33:07;;;;;;;10.82;6.07;;;;;;;18.62;59.40;93603.16;2071612;69;20136;-68
2022/07/18 06:35:33;;;;;;;11.32;6.28;;;;;;;18.81;57.02;93611.19;2071317;69;20607;-69
2022/07/18 06:37:59;;;;;;;13.38;6.30;;;;;;;18.86;59.43;93607.13;2071861;69;20148;-69
2022/07/18 06:40:25;;;;;;;7.35;6.00;;;;;;;19.02;58.39;93593.59;2072076;69;20156;-72
2022/07/18 06:42:51;;;;;;;8.10;6.40;;;;;;;19.09;59.00;93594.59;2068308;69;20599;-74
2022/07/18 06:45:17;;;;;;;9.20;6.50;;;;;;;19.20;58.72;93590.06;2071774;69;20543;-70
2022/07/18 06:47:44;;;;;;;7.22;6.28;;;;;;;19.35;56.05;93582.84;2071777;69;20578;-73
2022/07/18 06:50:11;;;;;;;6.43;5.75;;;;;;;19.45;56.16;93581.13;2071601;69;20152;-68
2022/07/18 06:52:39;;;;;;;8.10;6.07;;;;;;;19.59;55.61;93577.41;2071043;69;20196;-68
2022/07/18 06:55:06;;;;;;;10.55;5.93;;;;;;;19.69;54.99;93572.13;2071216;69;20180;-67
2022/07/18 06:57:32;;;;;;;8.60;5.85;;;;;;;19.79;52.84;93572.53;2071199;69;20171;-67
2022/07/18 06:59:58;;;;;;;7.20;5.63;;;;;;;19.90;53.20;93570.84;2070986;69;20566;-70
2022/07/18 07:02:24;;;;;;;7.43;5.63;;;;;;;19.97;49.88;93570.41;2071200;69;20595;-68
2022/07/18 07:04:50;;;;;;;8.07;5.93;;;;;;;20.06;50.51;93571.47;2071049;69;20212;-68
2022/07/18 07:07:16;;;;;;;15.15;8.48;;;;;;;20.17;54.36;93572.63;2072809;69;20604;-68
2022/07/18 07:09:42;;;;;;;26.95;16.73;;;;;;;20.20;53.53;93566.28;2071846;69;20144;-68
2022/07/18 07:12:09;;;;;;;10.20;7.03;;;;;;;20.22;55.27;93566.38;2071880;69;20133;-68
2022/07/18 07:14:36;;;;;;;7.10;5.97;;;;;;;20.36;55.17;93560.47;2072075;69;20164;-70
2022/07/18 07:17:02;;;;;;;8.55;6.05;;;;;;;20.41;55.15;93559.25;2071979;69;20259;-67
2022/07/18 07:19:28;;;;;;;7.25;5.90;;;;;;;20.49;54.77;93553.84;2068544;69;20210;-67
2022/07/18 07:21:53;;;;;;;6.20;5.60;;;;;;;20.62;54.70;93554.28;2071883;69;20148;-75
2022/07/18 07:24:19;;;;;;;8.88;5.63;;;;;;;20.67;54.87;93556.66;2072159;69;20183;-71
2022/07/18 07:26:45;;;;;;;9.18;6.45;;;;;;;20.81;55.13;93548.59;2071813;69;20243;-77
2022/07/18 07:29:11;;;;;;;8.52;5.80;;;;;;;20.81;54.41;93540.00;2072052;69;20635;-70
2022/07/18 07:31:37;;;;;;;7.45;5.72;;;;;;;20.96;55.12;93544.13;2068665;69;20219;-69
2022/07/18 07:34:02;;;;;;;9.65;5.80;;;;;;;21.01;55.06;93531.41;2071820;69;20228;-74
2022/07/18 07:36:28;;;;;;;9.07;6.50;;;;;;;21.13;54.69;93531.13;2071746;69;20170;-68
2022/07/18 07:38:54;;;;;;;7.47;5.90;;;;;;;21.23;55.68;93527.88;2072059;69;20178;-77
2022/07/18 07:41:19;;;;;;;11.27;7.07;;;;;;;21.29;53.61;93525.94;2071938;69;20140;-77
2022/07/18 07:43:45;;;;;;;11.55;6.47;;;;;;;21.37;52.51;93525.50;2071834;69;20227;-70
2022/07/18 07:46:11;;;;;;;12.13;6.28;;;;;;;21.37;52.51;93525.50;2071846;69;20206;-66
2022/07/18 07:48:38;;;;;;;8.32;6.50;;;;;;;21.72;51.53;93512.31;2071746;69;20156;-69
2022/07/18 07:51:04;;;;;;;9.02;6.40;;;;;;;21.52;52.74;93518.84;2071708;69;20148;-67
2022/07/18 07:53:31;;;;;;;9.38;6.53;;;;;;;21.77;51.10;93523.25;2071654;69;20186;-73
2022/07/18 07:55:57;;;;;;;8.05;6.13;;;;;;;21.98;50.33;93518.16;2071891;69;20148;-66
2022/07/18 07:58:23;;;;;;;6.70;6.10;;;;;;;22.11;50.62;93519.25;2071588;69;20527;-71
2022/07/18 08:00:49;;;;;;;7.35;5.53;;;;;;;22.33;49.96;93509.22;2068002;69;20620;-68
2022/07/18 08:03:14;;;;;;;9.52;5.47;;;;;;;22.58;47.26;93515.66;2071678;69;20155;-70
2022/07/18 08:05:48;;;;;;;8.93;5.45;;;;;;;22.82;45.75;93510.66;2071579;69;20168;-68
2022/07/18 08:08:14;;;;;;;6.07;5.00;;;;;;;23.13;45.32;93517.22;2071215;69;20176;-69
2022/07/18 08:10:40;;;;;;;6.20;5.10;;;;;;;23.83;46.19;93508.28;2071590;69;20277;-68
2022/07/18 08:13:06;;;;;;;6.78;4.95;;;;;;;23.88;46.55;93504.09;2071917;69;20148;-76
2022/07/18 08:15:32;;;;;;;6.95;5.40;;;;;;;24.00;44.13;93509.38;2071683;69;20152;-71
2022/07/18 08:17:58;;;;;;;7.60;4.90;;;;;;;24.41;42.94;93504.56;2070472;69;20462;-72
2022/07/18 08:20:24;;;;;;;8.88;5.13;;;;;;;24.77;42.39;93501.72;2067720;69;20200;-68
2022/07/18 08:22:55;;;;;;;34.92;23.42;;;;;;;24.85;45.35;93493.28;2071649;69;20140;-71
2022/07/18 08:25:21;;;;;;;5.97;5.13;;;;;;;25.02;40.77;93492.16;2068216;69;20694;-67
2022/07/18 08:27:48;;;;;;;8.52;4.70;;;;;;;25.58;41.14;93494.66;2071482;69;20256;-68
2022/07/18 08:30:14;;;;;;;5.25;4.55;;;;;;;25.85;42.56;93500.88;2071576;69;20133;-73
2022/07/18 08:32:39;;;;;;;5.68;4.75;;;;;;;25.89;39.15;93489.44;2071645;69;20144;-67
2022/07/18 08:35:06;;;;;;;5.53;4.90;;;;;;;25.67;40.28;93491.91;2071818;69;20151;-69
2022/07/18 08:37:31;;;;;;;5.63;4.63;;;;;;;26.27;41.26;93491.44;2071263;69;20615;-73
2022/07/18 08:39:57;;;;;;;6.63;5.32;;;;;;;26.88;40.17;93477.81;2071742;69;20225;-68
2022/07/18 08:42:25;;;;;;;7.43;4.85;;;;;;;27.26;39.08;93489.13;2071649;69;20143;-69
2022/07/18 08:44:54;;;;;;;5.80;5.03;;;;;;;27.51;38.35;93480.69;2071611;69;20160;-68
2022/07/18 08:47:21;;;;;;;5.28;4.63;;;;;;;27.23;38.82;93490.53;2068034;69;20600;-68
2022/07/18 08:49:48;;;;;;;8.23;4.97;;;;;;;27.49;37.15;93490.09;2071675;69;20170;-74
2022/07/18 08:52:14;;;;;;;27.08;6.32;;;;;;;27.46;37.19;93470.53;2071522;69;20199;-70
2022/07/18 08:54:40;;;;;;;5.63;4.75;;;;;;;28.03;37.71;93477.53;2073868;69;20155;-69
2022/07/18 08:57:06;;;;;;;6.72;4.60;;;;;;;28.20;37.95;93463.19;2071605;69;20149;-68
2022/07/18 08:59:31;;;;;;;5.82;4.78;;;;;;;27.85;37.78;93460.75;2071819;69;20156;-71
2022/07/18 09:01:57;;;;;;;10.40;4.90;;;;;;;28.49;37.19;93467.00;2071666;69;20156;-76
2022/07/18 09:04:33;;;;;;;6.80;4.63;;;;;;;28.39;35.72;93464.78;2071358;69;20592;-75
2022/07/18 09:06:58;;;;;;;5.70;4.75;;;;;;;28.85;36.06;93466.47;2071330;69;20156;-72
2022/07/18 09:09:24;;;;;;;7.10;4.60;;;;;;;28.96;34.76;93456.41;2071519;69;20159;-74
2022/07/18 09:11:56;;;;;;;5.20;4.65;;;;;;;28.59;35.21;93453.31;2071872;69;20144;-75
2022/07/18 09:14:29;;;;;;;5.95;4.57;;;;;;;28.92;35.35;93456.38;2071457;69;20224;-75
2022/07/18 09:17:25;;;;;;;6.78;4.88;;;;;;;28.36;35.96;93452.47;2071215;69;20159;-77
2022/07/18 09:20:11;;;;;;;6.63;5.10;;;;;;;28.92;35.09;93452.75;2070864;69;20655;-76
2022/07/18 09:22:38;;;;;;;6.78;4.90;;;;;;;28.89;35.21;93452.00;2071131;69;20166;-73
2022/07/18 09:25:14;;;;;;;7.25;4.63;;;;;;;28.99;33.79;93442.63;2069850;69;20176;-68
2022/07/18 09:27:39;;;;;;;9.00;4.35;;;;;;;29.73;34.96;93441.34;2071588;69;20152;-75
2022/07/18 09:30:22;;;;;;;7.53;4.78;;;;;;;30.13;33.85;93449.34;2071696;69;20183;-77
2022/07/18 09:33:04;;;;;;;5.75;4.72;;;;;;;30.27;33.81;93447.88;2068223;69;20178;-69
2022/07/18 09:35:33;;;;;;;16.13;5.15;;;;;;;30.23;33.55;93442.78;2070225;69;20144;-75
2022/07/18 09:38:02;;;;;;;8.02;4.93;;;;;;;30.23;32.53;93431.19;2071502;69;20143;-75
2022/07/18 09:40:45;;;;;;;8.13;4.80;;;;;;;30.30;33.21;93432.63;2071701;69;20151;-77
2022/07/18 09:43:14;;;;;;;6.38;4.60;;;;;;;30.43;32.78;93432.63;2067827;69;20159;-74
2022/07/18 09:45:47;;;;;;;6.45;4.93;;;;;;;30.18;33.17;93426.13;2071647;69;20155;-71
2022/07/18 09:48:16;;;;;;;6.18;4.55;;;;;;;30.84;32.08;93424.50;2071719;69;20148;-69
2022/07/18 09:50:41;;;;;;;6.60;4.40;;;;;;;30.72;30.76;93430.38;2071619;69;20502;-73
2022/07/18 09:53:16;;;;;;;4.60;3.65;;;;;;;31.23;30.67;93418.50;2071263;69;20148;-74
2022/07/18 09:55:49;;;;;;;4.38;3.40;;;;;;;31.54;29.98;93433.59;2071712;69;20228;-76
2022/07/18 09:58:20;;;;;;;5.05;3.50;;;;;;;31.62;31.53;93419.00;2071692;69;20141;-72
2022/07/18 10:00:47;;;;;;;7.70;3.67;;;;;;;31.13;30.17;93420.00;2071651;69;20184;-70
2022/07/18 10:03:12;;;;;;;8.98;3.60;;;;;;;31.70;28.69;93424.75;2071462;69;20549;-73
2022/07/18 10:05:40;;;;;;;6.40;3.25;;;;;;;31.79;28.70;93422.50;2068239;69;20136;-71
2022/07/18 10:08:08;;;;;;;4.88;3.30;;;;;;;32.55;27.98;93420.38;2071487;69;20133;-71
2022/07/18 10:10:35;;;;;;;4.10;3.42;;;;;;;32.22;28.16;93410.53;2071639;69;20152;-72
2022/07/18 10:13:02;;;;;;;4.97;3.38;;;;;;;33.22;27.79;93412.31;2068796;69;20155;-72
2022/07/18 10:15:30;;;;;;;5.50;2.85;;;;;;;32.71;27.74;93410.72;2072062;69;20215;-72
2022/07/18 10:17:57;;;;;;;3.33;2.83;;;;;;;32.94;26.79;93413.41;2072127;69;20148;-77
2022/07/18 10:20:32;;;;;;;5.22;2.92;;;;;;;33.40;26.24;93403.28;2072119;69;20235;-74
2022/07/18 10:23:08;;;;;;;3.33;2.88;;;;;;;33.63;26.17;93410.28;2071992;69;20187;-78
2022/07/18 10:25:33;;;;;;;3.28;2.95;;;;;;;34.52;27.40;93400.81;2069083;69;20140;-74
2022/07/18 10:28:09;;;;;;;5.82;3.10;;;;;;;34.36;27.15;93401.78;2072219;69;20202;-73
2022/07/18 10:30:42;;;;;;;3.80;3.13;;;;;;;33.77;25.68;93391.84;2072011;69;20224;-77
2022/07/18 10:33:40;;;;;;;3.22;2.80;;;;;;;33.94;25.69;93383.50;2072221;69;20144;-75
2022/07/18 10:36:07;;;;;;;6.88;2.70;;;;;;;34.52;24.92;93386.19;2072077;69;20153;-75
2022/07/18 10:38:33;;;;;;;3.90;2.90;;;;;;;35.56;26.76;93387.72;2071983;69;20613;-79
2022/07/18 10:41:07;;;;;;;6.53;3.10;;;;;;;35.42;25.18;93390.94;2072181;69;20148;-79
2022/07/18 10:43:39;;;;;;;2.75;2.47;;;;;;;36.52;23.89;93388.28;2072216;69;20144;-79
2022/07/18 10:46:06;;;;;;;4.43;2.75;;;;;;;36.32;23.90;93389.50;2072066;69;20156;-72
2022/07/18 10:48:32;;;;;;;6.00;3.03;;;;;;;35.95;24.64;93395.59;2072081;69;20276;-70
2022/07/18 10:51:01;;;;;;;4.07;2.78;;;;;;;35.96;24.02;93391.16;2072015;69;20216;-70
2022/07/18 10:53:55;;;;;;;4.30;2.53;;;;;;;36.26;24.47;93383.09;2071948;69;20155;-70
2022/07/18 10:56:40;;;;;;;3.53;2.60;;;;;;;36.95;22.74;93375.38;2072042;69;20147;-71
2022/07/18 10:59:22;;;;;;;3.92;2.50;;;;;;;38.06;21.49;93379.34;2071456;69;20159;-69
2022/07/18 11:01:56;;;;;;;4.05;2.30;;;;;;;38.77;21.14;93376.22;2069587;69;20148;-70
2022/07/18 11:04:39;;;;;;;5.30;2.30;;;;;;;39.97;20.04;93373.88;2072019;69;20160;-70
2022/07/18 11:07:13;;;;;;;7.78;2.45;;;;;;;42.64;18.18;93381.75;2068377;69;20144;-70
2022/07/18 11:09:47;;;;;;;5.07;1.70;;;;;;;43.28;16.67;93373.94;2070468;69;20148;-71
2022/07/18 11:12:23;;;;;;;4.97;1.65;;;;;;;45.88;14.23;93380.31;2072634;69;20156;-70
2022/07/18 11:15:08;;;;;;;5.60;1.90;;;;;;;47.22;12.97;93384.84;2071228;69;20164;-73
2022/07/18 11:18:00;;;;;;;2.92;1.50;;;;;;;46.49;11.68;93387.50;2072819;69;20148;-71
2022/07/18 11:20:38;;;;;;;4.35;1.75;;;;;;;48.83;11.72;93385.84;2071234;69;20534;-74
2022/07/18 11:23:13;;;;;;;3.55;1.42;;;;;;;48.97;12.44;93378.06;2067697;69;20724;-76
2022/07/18 11:25:40;;;;;;;3.25;1.30;;;;;;;50.55;11.41;93378.31;2071666;69;20144;-73
2022/07/18 11:28:10;;;;;;;5.50;1.88;;;;;;;49.28;11.52;93372.75;2071545;69;21801;-70
2022/07/18 11:30:39;;;;;;;4.85;1.73;;;;;;;49.81;11.19;93365.59;2071519;69;20163;-70
2022/07/18 11:33:06;;;;;;;4.22;1.55;;;;;;;48.38;11.11;93367.59;2071834;69;20132;-70
2022/07/18 11:35:31;;;;;;;2.58;1.40;;;;;;;48.52;11.00;93354.56;2071390;69;20772;-68